createdAt,value
2018-07-13T00:01:43.858Z,20.10
2018-07-13T00:04:12.295Z,20.10
2018-07-13T00:06:40.722Z,20.10
2018-07-13T00:09:10.827Z,20.10
2018-07-13T00:11:39.847Z,20.10
2018-07-13T00:14:14.015Z,20.10
2018-07-13T00:16:43.211Z,20.00
2018-07-13T00:19:12.125Z,20.10
2018-07-13T00:21:40.567Z,20.00
2018-07-13T00:24:09.196Z,20.00
2018-07-13T00:26:38.350Z,20.00
2018-07-13T00:29:07.363Z,19.90
2018-07-13T00:31:36.700Z,19.90
2018-07-13T00:34:05.366Z,19.90
2018-07-13T00:36:33.957Z,19.80
2018-07-13T00:39:02.587Z,19.80
2018-07-13T00:41:31.076Z,19.70
2018-07-13T00:43:59.507Z,19.50
2018-07-13T00:46:27.943Z,19.50
2018-07-13T00:48:56.379Z,19.40
2018-07-13T00:51:24.799Z,19.40
2018-07-13T00:53:53.213Z,19.40
2018-07-13T00:56:21.629Z,19.40
2018-07-13T00:58:50.537Z,19.30
2018-07-13T01:01:18.982Z,19.40
2018-07-13T01:03:47.420Z,19.30
2018-07-13T01:06:15.838Z,19.30
2018-07-13T01:08:44.276Z,19.30
2018-07-13T01:11:12.688Z,19.30
2018-07-13T01:13:41.106Z,19.30
2018-07-13T01:16:09.577Z,19.20
2018-07-13T01:18:38.162Z,19.20
2018-07-13T01:21:06.804Z,19.20
2018-07-13T01:23:35.208Z,19.20
2018-07-13T01:26:03.636Z,19.20
2018-07-13T01:28:32.126Z,19.20
2018-07-13T01:31:00.546Z,19.20
2018-07-13T01:33:29.008Z,19.20
2018-07-13T01:35:57.567Z,19.20
2018-07-13T01:38:26.000Z,19.10
2018-07-13T01:40:54.455Z,19.20
2018-07-13T01:43:22.856Z,19.10
2018-07-13T01:45:51.287Z,19.10
2018-07-13T01:48:19.853Z,19.10
2018-07-13T01:50:48.285Z,19.10
2018-07-13T01:53:16.706Z,19.10
2018-07-13T01:55:45.216Z,19.10
2018-07-13T01:58:13.569Z,19.10
2018-07-13T02:00:41.995Z,19.10
2018-07-13T02:03:10.395Z,19.10
2018-07-13T02:05:38.957Z,19.10
2018-07-13T02:08:07.372Z,19.00
2018-07-13T02:10:35.785Z,19.00
2018-07-13T02:13:04.323Z,19.00
2018-07-13T02:15:32.729Z,18.90
2018-07-13T02:18:01.132Z,18.90
2018-07-13T02:20:29.548Z,18.70
2018-07-13T02:22:57.992Z,18.60
2018-07-13T02:25:26.448Z,18.50
2018-07-13T02:27:54.973Z,18.30
2018-07-13T02:30:23.393Z,18.30
2018-07-13T02:32:51.833Z,18.20
2018-07-13T02:35:20.252Z,18.20
2018-07-13T02:37:48.683Z,18.20
2018-07-13T02:40:17.114Z,18.20
2018-07-13T02:42:45.521Z,18.30
2018-07-13T02:45:14.148Z,18.30
2018-07-13T02:47:42.576Z,18.20
2018-07-13T02:50:11.003Z,18.20
2018-07-13T02:52:39.552Z,18.10
2018-07-13T02:55:08.117Z,18.00
2018-07-13T02:57:36.547Z,18.00
2018-07-13T03:00:05.225Z,18.10
2018-07-13T03:02:33.655Z,18.10
2018-07-13T03:05:02.103Z,18.20
2018-07-13T03:07:30.567Z,18.20
2018-07-13T03:09:58.995Z,18.10
2018-07-13T03:12:27.467Z,18.00
2018-07-13T03:14:55.866Z,17.90
2018-07-13T03:17:24.425Z,17.90
2018-07-13T03:19:52.831Z,17.80
2018-07-13T03:22:21.269Z,17.70
2018-07-13T03:24:49.675Z,17.60
2018-07-13T03:27:18.140Z,17.60
2018-07-13T03:29:46.553Z,17.60
2018-07-13T03:32:14.975Z,17.50
2018-07-13T03:34:43.457Z,17.60
2018-07-13T03:37:11.889Z,17.60
2018-07-13T03:39:40.319Z,17.50
2018-07-13T03:42:08.729Z,17.50
2018-07-13T03:44:37.217Z,17.50
2018-07-13T03:47:05.809Z,17.50
2018-07-13T03:49:34.286Z,17.50
2018-07-13T03:52:02.841Z,17.60
2018-07-13T03:54:31.274Z,17.60
2018-07-13T03:56:59.699Z,17.50
2018-07-13T03:59:28.127Z,17.50
2018-07-13T04:01:56.531Z,17.60
2018-07-13T04:04:24.997Z,17.80
2018-07-13T04:06:54.193Z,17.90
2018-07-13T04:09:22.591Z,18.00
2018-07-13T04:11:51.038Z,18.10
2018-07-13T04:14:19.485Z,18.20
2018-07-13T04:16:47.895Z,18.20
2018-07-13T04:19:16.381Z,18.20
2018-07-13T04:21:44.819Z,18.30
2018-07-13T04:24:13.321Z,18.40
2018-07-13T04:26:43.837Z,18.50
2018-07-13T04:29:12.407Z,18.60
2018-07-13T04:31:40.967Z,18.70
2018-07-13T04:34:09.510Z,18.80
2018-07-13T04:36:37.967Z,18.90
2018-07-13T04:39:09.129Z,19.00
2018-07-13T04:41:37.671Z,19.00
2018-07-13T04:44:06.597Z,19.10
2018-07-13T04:46:35.125Z,19.20
2018-07-13T04:49:03.775Z,19.40
2018-07-13T04:51:32.231Z,19.60
2018-07-13T04:54:00.766Z,19.70
2018-07-13T04:56:29.608Z,19.70
2018-07-13T04:58:58.134Z,19.80
2018-07-13T05:01:26.937Z,20.00
2018-07-13T05:03:55.632Z,20.10
2018-07-13T05:06:24.112Z,20.20
2018-07-13T05:08:52.605Z,20.30
2018-07-13T05:11:21.072Z,20.40
2018-07-13T05:13:49.564Z,20.70
2018-07-13T05:16:18.038Z,20.80
2018-07-13T05:18:46.502Z,21.00
2018-07-13T05:21:15.143Z,21.20
2018-07-13T05:23:43.593Z,21.30
2018-07-13T05:26:12.179Z,21.40
2018-07-13T05:28:40.811Z,21.40
2018-07-13T05:31:09.634Z,21.40
2018-07-13T05:33:38.255Z,21.60
2018-07-13T05:36:06.954Z,21.80
2018-07-13T05:38:35.508Z,21.90
2018-07-13T05:41:04.224Z,22.00
2018-07-13T05:43:32.728Z,22.20
2018-07-13T05:46:01.260Z,22.40
2018-07-13T05:48:31.424Z,22.60
2018-07-13T05:51:00.272Z,22.90
2018-07-13T05:53:29.238Z,23.00
2018-07-13T05:55:57.862Z,23.00
2018-07-13T05:58:27.142Z,23.00
2018-07-13T06:00:56.936Z,22.90
2018-07-13T06:03:25.505Z,22.70
2018-07-13T06:05:53.959Z,23.00
2018-07-13T06:08:22.455Z,23.20
2018-07-13T06:10:51.129Z,23.30
2018-07-13T06:13:19.643Z,23.50
2018-07-13T06:15:48.344Z,23.90
2018-07-13T06:18:16.908Z,23.90
2018-07-13T06:20:45.376Z,24.20
2018-07-13T06:23:13.828Z,24.40
2018-07-13T06:25:42.312Z,24.70
2018-07-13T06:28:10.756Z,24.90
2018-07-13T06:30:39.972Z,25.10
2018-07-13T06:33:08.640Z,25.20
2018-07-13T06:35:37.100Z,25.20
2018-07-13T06:38:05.982Z,25.20
2018-07-13T06:40:34.555Z,25.20
2018-07-13T06:43:03.092Z,25.50
2018-07-13T06:45:35.835Z,25.80
2018-07-13T06:48:04.593Z,26.00
2018-07-13T06:50:33.232Z,26.00
2018-07-13T06:53:02.112Z,26.10
2018-07-13T06:55:30.562Z,26.40
2018-07-13T06:58:10.364Z,26.40
2018-07-13T07:01:09.603Z,26.60
2018-07-13T07:04:50.556Z,26.60
2018-07-13T07:07:21.696Z,26.80
2018-07-13T07:09:51.619Z,27.00
2018-07-13T07:13:28.930Z,27.20
2018-07-13T07:15:57.587Z,27.60
2018-07-13T07:18:26.052Z,27.60
2018-07-13T07:20:55.479Z,27.80
2018-07-13T07:23:24.040Z,27.90
2018-07-13T07:25:53.043Z,27.90
2018-07-13T07:28:21.505Z,27.80
2018-07-13T07:30:50.032Z,27.90
2018-07-13T07:33:18.435Z,27.90
2018-07-13T07:35:46.899Z,27.90
2018-07-13T07:38:16.795Z,27.80
2018-07-13T07:40:45.641Z,27.40
2018-07-13T07:43:14.096Z,27.30
2018-07-13T07:45:42.601Z,27.30
2018-07-13T07:48:11.297Z,27.40
2018-07-13T07:50:39.767Z,27.70
2018-07-13T07:53:08.249Z,28.10
2018-07-13T07:55:36.703Z,28.30
2018-07-13T07:58:05.627Z,28.40
2018-07-13T08:00:34.097Z,28.20
2018-07-13T08:03:02.549Z,27.90
2018-07-13T08:05:30.963Z,28.20
2018-07-13T08:07:59.355Z,28.80
2018-07-13T08:10:28.023Z,28.90
2018-07-13T08:12:56.399Z,28.60
2018-07-13T08:15:24.847Z,28.80
2018-07-13T08:17:53.241Z,28.90
2018-07-13T08:20:25.457Z,29.10
2018-07-13T08:22:58.989Z,29.20
2018-07-13T08:25:27.818Z,29.40
2018-07-13T08:28:02.101Z,29.10
2018-07-13T08:30:33.280Z,29.10
2018-07-13T08:33:01.750Z,29.30
2018-07-13T08:35:30.126Z,29.60
2018-07-13T08:37:58.544Z,29.90
2018-07-13T08:40:27.038Z,30.00
2018-07-13T08:42:55.479Z,29.50
2018-07-13T08:45:24.128Z,29.30
2018-07-13T08:47:52.568Z,29.40
2018-07-13T08:50:21.061Z,29.60
2018-07-13T08:52:49.572Z,30.00
2018-07-13T08:55:18.019Z,30.40
2018-07-13T08:57:48.003Z,30.40
2018-07-13T09:02:44.730Z,29.60
2018-07-13T09:05:13.480Z,29.40
2018-07-13T09:07:42.844Z,29.00
2018-07-13T09:10:12.317Z,29.30
2018-07-13T09:12:41.393Z,29.60
2018-07-13T09:15:11.328Z,29.00
2018-07-13T09:17:39.782Z,28.50
2018-07-13T09:20:09.716Z,28.60
2018-07-13T09:22:38.223Z,29.10
2018-07-13T09:25:07.372Z,29.00
2018-07-13T09:27:35.798Z,29.20
2018-07-13T09:30:04.542Z,29.50
2018-07-13T09:32:32.967Z,29.70
2018-07-13T09:35:01.396Z,29.30
2018-07-13T09:37:29.879Z,29.20
2018-07-13T09:39:58.326Z,29.40
2018-07-13T09:42:26.774Z,29.80
2018-07-13T09:44:55.203Z,30.10
2018-07-13T09:47:23.823Z,30.20
2018-07-13T09:49:52.268Z,30.40
2018-07-13T09:52:21.278Z,29.90
2018-07-13T09:54:49.717Z,29.50
2018-07-13T09:57:18.187Z,28.50
2018-07-13T09:59:47.085Z,28.00
2018-07-13T10:02:15.588Z,28.30
2018-07-13T10:04:44.076Z,28.90
2018-07-13T10:07:12.716Z,29.10
2018-07-13T10:09:41.155Z,29.30
2018-07-13T10:12:09.612Z,29.20
2018-07-13T10:14:38.121Z,29.20
2018-07-13T10:17:06.643Z,29.00
2018-07-13T10:19:35.112Z,28.80
2018-07-13T10:22:03.584Z,28.80
2018-07-13T10:24:33.099Z,28.90
2018-07-13T10:27:01.609Z,28.70
2018-07-13T10:29:33.017Z,28.50
2018-07-13T10:32:02.272Z,28.60
2018-07-13T10:34:30.787Z,28.90
2018-07-13T10:37:02.835Z,29.20
2018-07-13T10:39:31.828Z,29.10
2018-07-13T10:42:00.494Z,29.10
2018-07-13T10:44:28.958Z,29.20
2018-07-13T10:46:57.403Z,28.80
2018-07-13T10:49:25.908Z,28.90
2018-07-13T10:51:54.348Z,28.70
2018-07-13T10:54:22.960Z,28.90
2018-07-13T10:56:51.624Z,29.50
2018-07-13T10:59:19.988Z,29.80
2018-07-13T11:01:48.448Z,30.10
2018-07-13T11:04:16.917Z,30.20
2018-07-13T11:06:45.857Z,30.40
2018-07-13T11:09:14.280Z,30.30
2018-07-13T11:11:42.681Z,30.10
2018-07-13T11:14:11.466Z,30.20
2018-07-13T11:16:40.309Z,30.40
2018-07-13T11:19:08.818Z,30.60
2018-07-13T11:21:37.299Z,30.70
2018-07-13T11:24:05.763Z,30.60
2018-07-13T11:26:34.215Z,30.20
2018-07-13T11:29:02.636Z,30.10
2018-07-13T11:31:31.171Z,29.90
2018-07-13T11:33:59.576Z,29.50
2018-07-13T11:36:28.068Z,29.50
2018-07-13T11:38:56.928Z,29.60
2018-07-13T11:41:25.340Z,29.60
2018-07-13T11:43:53.769Z,29.30
2018-07-13T11:46:22.180Z,29.00
2018-07-13T11:48:50.642Z,28.80
2018-07-13T11:51:19.214Z,28.60
2018-07-13T11:53:47.660Z,28.40
2018-07-13T11:56:16.064Z,28.30
2018-07-13T11:58:44.544Z,28.00
2018-07-13T12:01:13.864Z,28.00
2018-07-13T12:03:42.384Z,27.80
2018-07-13T12:06:10.800Z,27.60
2018-07-13T12:08:39.240Z,27.60
2018-07-13T12:11:07.722Z,27.60
2018-07-13T12:13:36.140Z,27.60
2018-07-13T12:16:04.867Z,27.60
2018-07-13T12:18:33.400Z,27.70
2018-07-13T12:21:02.013Z,27.80
2018-07-13T12:23:30.432Z,28.20
2018-07-13T12:26:00.067Z,27.80
2018-07-13T12:28:28.529Z,27.70
2018-07-13T12:30:56.930Z,27.60
2018-07-13T12:33:25.323Z,27.40
2018-07-13T12:35:53.714Z,27.50
2018-07-13T12:38:22.249Z,27.30
2018-07-13T12:40:50.715Z,27.00
2018-07-13T12:43:19.287Z,26.80
2018-07-13T12:45:47.787Z,26.80
2018-07-13T12:48:16.363Z,26.70
2018-07-13T12:50:45.919Z,26.80
2018-07-13T12:53:15.382Z,26.80
2018-07-13T12:55:44.545Z,26.70
2018-07-13T12:58:12.976Z,26.70
2018-07-13T13:00:42.185Z,26.70
2018-07-13T13:03:10.635Z,26.60
2018-07-13T13:05:39.167Z,26.70
2018-07-13T13:08:07.544Z,26.80
2018-07-13T13:10:36.023Z,27.20
2018-07-13T13:13:04.458Z,27.40
2018-07-13T13:15:32.916Z,27.60
2018-07-13T13:18:01.312Z,27.70
2018-07-13T13:20:29.746Z,27.80
2018-07-13T13:25:26.424Z,27.70
2018-07-13T13:27:54.858Z,27.60
2018-07-13T13:30:23.380Z,27.60
2018-07-13T13:32:51.953Z,27.80
2018-07-13T13:35:20.349Z,28.00
2018-07-13T13:37:48.786Z,28.00
2018-07-13T13:40:17.206Z,28.10
2018-07-13T13:42:45.821Z,28.10
2018-07-13T13:45:14.264Z,28.00
2018-07-13T13:47:42.710Z,27.60
2018-07-13T13:50:11.165Z,27.40
2018-07-13T13:52:39.560Z,27.50
2018-07-13T13:55:08.034Z,27.40
2018-07-13T13:57:36.437Z,27.20
2018-07-13T14:00:04.920Z,27.30
2018-07-13T14:02:33.441Z,27.30
2018-07-13T14:05:01.921Z,27.40
2018-07-13T14:07:30.573Z,27.50
2018-07-13T14:09:59.052Z,27.70
2018-07-13T14:12:27.560Z,27.80
2018-07-13T14:14:56.061Z,27.80
2018-07-13T14:17:25.272Z,27.80
2018-07-13T14:19:54.463Z,27.60
2018-07-13T14:22:22.876Z,27.50
2018-07-13T14:24:51.348Z,27.20
2018-07-13T14:27:19.876Z,27.20
2018-07-13T14:29:48.300Z,27.20
2018-07-13T14:32:16.736Z,27.20
2018-07-13T14:34:45.172Z,27.20
2018-07-13T14:37:13.601Z,27.30
2018-07-13T14:39:42.032Z,27.40
2018-07-13T14:42:10.455Z,27.40
2018-07-13T14:44:38.883Z,27.40
2018-07-13T14:47:07.625Z,27.50
2018-07-13T14:49:35.900Z,27.60
2018-07-13T14:52:04.390Z,27.80
2018-07-13T14:54:32.832Z,27.90
2018-07-13T14:57:01.264Z,27.90
2018-07-13T14:59:29.696Z,28.00
2018-07-13T15:01:58.140Z,28.00
2018-07-13T15:04:26.586Z,28.10
2018-07-13T15:06:55.068Z,28.00
2018-07-13T15:09:23.413Z,27.90
2018-07-13T15:11:51.855Z,27.70
2018-07-13T15:14:20.327Z,27.50
2018-07-13T15:16:48.889Z,27.50
2018-07-13T15:19:17.381Z,27.50
2018-07-13T15:21:45.872Z,27.60
2018-07-13T15:24:15.293Z,27.50
2018-07-13T15:26:43.759Z,27.30
2018-07-13T15:29:12.224Z,27.20
2018-07-13T15:31:40.844Z,27.10
2018-07-13T15:34:09.351Z,27.10
2018-07-13T15:36:37.791Z,26.90
2018-07-13T15:39:06.763Z,26.80
2018-07-13T15:41:35.339Z,26.70
2018-07-13T15:44:03.866Z,26.60
2018-07-13T15:46:32.317Z,26.60
2018-07-13T15:49:00.869Z,26.50
2018-07-13T15:51:29.465Z,26.60
2018-07-13T15:53:58.219Z,26.70
2018-07-13T15:56:26.701Z,26.80
2018-07-13T15:58:55.170Z,27.00
2018-07-13T16:01:23.505Z,27.10
2018-07-13T16:03:52.033Z,27.20
2018-07-13T16:06:20.860Z,27.20
2018-07-13T16:08:49.401Z,27.20
2018-07-13T16:11:17.839Z,27.00
2018-07-13T16:13:46.385Z,26.90
2018-07-13T16:16:14.801Z,26.90
2018-07-13T16:18:43.221Z,26.90
2018-07-13T16:21:11.679Z,27.00
2018-07-13T16:23:40.302Z,26.90
2018-07-13T16:26:08.716Z,27.00
2018-07-13T16:28:37.637Z,26.90
2018-07-13T16:31:06.355Z,26.90
2018-07-13T16:33:35.039Z,26.80
2018-07-13T16:36:03.454Z,26.80
2018-07-13T16:38:31.855Z,26.70
2018-07-13T16:41:00.281Z,26.70
2018-07-13T16:43:28.704Z,26.70
2018-07-13T16:45:57.104Z,26.80
2018-07-13T16:48:25.505Z,26.80
2018-07-13T16:50:54.111Z,26.80
2018-07-13T16:53:22.580Z,26.80
2018-07-13T16:55:51.100Z,26.70
2018-07-13T16:58:19.897Z,26.60
2018-07-13T17:00:48.343Z,26.60
2018-07-13T17:03:16.906Z,26.60
2018-07-13T17:05:45.214Z,26.60
2018-07-13T17:08:13.645Z,26.60
2018-07-13T17:10:42.081Z,26.60
2018-07-13T17:13:10.481Z,26.50
2018-07-13T17:15:38.981Z,26.50
2018-07-13T17:18:07.453Z,26.50
2018-07-13T17:20:36.103Z,26.50
2018-07-13T17:23:04.423Z,26.50
2018-07-13T17:25:32.897Z,26.50
2018-07-13T17:28:01.457Z,26.50
2018-07-13T17:30:29.975Z,26.50
2018-07-13T17:32:58.358Z,26.40
2018-07-13T17:35:26.775Z,26.40
2018-07-13T17:37:55.181Z,26.40
2018-07-13T17:40:23.588Z,26.40
2018-07-13T17:42:52.418Z,26.40
2018-07-13T17:45:20.611Z,26.30
2018-07-13T17:47:49.045Z,26.30
2018-07-13T17:50:17.441Z,26.30
2018-07-13T17:52:45.987Z,26.30
2018-07-13T17:55:14.417Z,26.20
2018-07-13T17:57:42.815Z,26.20
2018-07-13T18:00:11.279Z,26.20
2018-07-13T18:02:39.785Z,26.10
2018-07-13T18:05:08.233Z,26.10
2018-07-13T18:07:36.673Z,26.10
2018-07-13T18:10:05.278Z,26.00
2018-07-13T18:12:33.770Z,26.00
2018-07-13T18:15:02.241Z,26.00
2018-07-13T18:17:30.707Z,25.90
2018-07-13T18:19:59.091Z,25.90
2018-07-13T18:22:27.559Z,25.90
2018-07-13T18:24:56.165Z,25.80
2018-07-13T18:27:24.600Z,25.80
2018-07-13T18:29:53.005Z,25.80
2018-07-13T18:32:21.597Z,25.80
2018-07-13T18:34:50.041Z,25.70
2018-07-13T18:37:18.424Z,25.70
2018-07-13T18:39:46.956Z,25.60
2018-07-13T18:42:15.394Z,25.60
2018-07-13T18:44:43.823Z,25.60
2018-07-13T18:47:12.477Z,25.60
2018-07-13T18:49:40.977Z,25.60
2018-07-13T18:52:09.344Z,25.50
2018-07-13T18:54:37.752Z,25.50
2018-07-13T18:57:06.178Z,25.40
2018-07-13T18:59:34.744Z,25.40
2018-07-13T19:02:03.345Z,25.30
2018-07-13T19:04:31.745Z,25.20
2018-07-13T19:07:00.168Z,25.20
2018-07-13T19:09:29.201Z,25.10
2018-07-13T19:11:57.773Z,25.10
2018-07-13T19:14:26.196Z,25.10
2018-07-13T19:16:54.651Z,25.00
2018-07-13T19:19:23.117Z,25.00
2018-07-13T19:21:51.611Z,24.90
2018-07-13T19:24:19.995Z,24.90
2018-07-13T19:26:48.431Z,24.80
2018-07-13T19:29:16.913Z,24.70
2018-07-13T19:31:45.315Z,24.70
2018-07-13T19:34:14.717Z,24.70
2018-07-13T19:36:43.169Z,24.70
2018-07-13T19:39:11.598Z,24.60
2018-07-13T19:41:40.055Z,24.60
2018-07-13T19:44:08.509Z,24.50
2018-07-13T19:46:37.208Z,24.50
2018-07-13T19:49:18.211Z,24.50
2018-07-13T19:51:46.962Z,24.40
2018-07-13T19:54:15.774Z,24.40
2018-07-13T19:56:44.244Z,24.40
2018-07-13T19:59:12.641Z,24.30
2018-07-13T20:01:41.094Z,24.30
2018-07-13T20:04:09.536Z,24.30
2018-07-13T20:06:38.068Z,24.30
2018-07-13T20:09:07.268Z,24.30
2018-07-13T20:11:35.722Z,24.30
2018-07-13T20:14:04.206Z,24.20
2018-07-13T20:16:32.639Z,24.20
2018-07-13T20:19:01.041Z,24.20
2018-07-13T20:21:29.523Z,24.10
2018-07-13T20:23:57.949Z,24.10
2018-07-13T20:26:26.490Z,24.00
2018-07-13T20:28:55.001Z,24.00
2018-07-13T20:31:23.405Z,23.90
2018-07-13T20:33:51.793Z,23.90
2018-07-13T20:36:20.232Z,23.90
2018-07-13T20:38:48.675Z,23.80
2018-07-13T20:41:17.082Z,23.80
2018-07-13T20:43:45.620Z,23.80
2018-07-13T20:46:14.291Z,23.60
2018-07-13T20:48:42.726Z,23.60
2018-07-13T20:51:11.223Z,23.60
2018-07-13T20:53:39.707Z,23.50
2018-07-13T20:56:08.336Z,23.50
2018-07-13T20:58:37.055Z,23.40
2018-07-13T21:01:05.452Z,23.30
2018-07-13T21:03:33.941Z,23.30
2018-07-13T21:06:02.560Z,23.30
2018-07-13T21:08:30.975Z,23.30
2018-07-13T21:10:59.620Z,23.30
2018-07-13T21:13:28.034Z,23.30
2018-07-13T21:15:56.468Z,23.20
2018-07-13T21:18:25.012Z,23.20
2018-07-13T21:20:53.454Z,23.20
2018-07-13T21:23:21.852Z,23.20
2018-07-13T21:25:50.262Z,23.10
2018-07-13T21:28:18.710Z,23.10
2018-07-13T21:30:47.242Z,23.10
2018-07-13T21:33:15.632Z,23.00
2018-07-13T21:35:44.110Z,23.00
2018-07-13T21:38:12.738Z,22.90
2018-07-13T21:40:41.190Z,22.90
2018-07-13T21:43:09.768Z,22.90
2018-07-13T21:45:38.218Z,22.80
2018-07-13T21:48:06.888Z,22.80
2018-07-13T21:50:35.300Z,22.80
2018-07-13T21:53:03.781Z,22.70
2018-07-13T21:55:32.359Z,22.70
2018-07-13T21:58:01.070Z,22.60
2018-07-13T22:00:29.948Z,22.60
2018-07-13T22:02:58.424Z,22.60
2018-07-13T22:05:26.976Z,22.60
2018-07-13T22:07:55.480Z,22.60
2018-07-13T22:10:23.904Z,22.60
2018-07-13T22:12:52.860Z,22.70
2018-07-13T22:15:21.350Z,22.70
2018-07-13T22:17:49.822Z,22.70
2018-07-13T22:20:18.746Z,22.70
2018-07-13T22:22:47.432Z,22.70
2018-07-13T22:25:16.476Z,22.70
2018-07-13T22:27:44.936Z,22.60
2018-07-13T22:30:13.488Z,22.60
2018-07-13T22:32:42.958Z,22.60
2018-07-13T22:35:11.352Z,22.70
2018-07-13T22:37:39.820Z,22.70
2018-07-13T22:40:08.584Z,22.70
2018-07-13T22:42:37.161Z,22.70
2018-07-13T22:45:06.106Z,22.80
2018-07-13T22:47:34.588Z,22.80
2018-07-13T22:50:03.218Z,22.70
2018-07-13T22:52:31.647Z,22.70
2018-07-13T22:55:00.339Z,22.50
2018-07-13T22:57:28.738Z,22.30
2018-07-13T22:59:57.198Z,22.10
2018-07-13T23:02:25.638Z,22.10
2018-07-13T23:04:54.139Z,22.10
2018-07-13T23:07:23.524Z,22.00
2018-07-13T23:09:54.524Z,21.80
2018-07-13T23:12:23.364Z,21.60
2018-07-13T23:14:51.794Z,21.30
2018-07-13T23:17:20.215Z,21.20
2018-07-13T23:19:48.678Z,21.10
2018-07-13T23:22:17.150Z,21.10
2018-07-13T23:24:45.588Z,21.10
2018-07-13T23:27:14.982Z,21.10
2018-07-13T23:29:43.408Z,21.10
2018-07-13T23:32:11.887Z,21.00
2018-07-13T23:34:40.400Z,20.90
2018-07-13T23:37:08.816Z,20.80
2018-07-13T23:39:37.264Z,20.70
2018-07-13T23:42:05.711Z,20.70
2018-07-13T23:44:34.128Z,20.70
2018-07-13T23:47:02.761Z,20.70
2018-07-13T23:49:31.199Z,20.70
2018-07-13T23:51:59.631Z,20.70
2018-07-13T23:54:28.092Z,20.70
2018-07-13T23:56:56.584Z,20.80
2018-07-13T23:59:25.051Z,20.80
